sensor_id;sensor_type;location;lat;lon;timestamp;P1;durP1;ratioP1;P2;durP2;ratioP2
4377;SDS011;2203;53.686;9.994;2022-09-12T00:01:43;2.57;;;2.03;;
4377;SDS011;2203;53.686;9.994;2022-09-12T00:04:08;2.13;;;1.93;;
4377;SDS011;2203;53.686;9.994;2022-09-12T00:06:35;2.70;;;1.60;;
4377;SDS011;2203;53.686;9.994;2022-09-12T00:09:02;5.70;;;2.00;;
4377;SDS011;2203;53.686;9.994;2022-09-12T00:11:30;3.93;;;2.27;;
4377;SDS011;2203;53.686;9.994;2022-09-12T00:13:59;5.67;;;1.87;;
4377;SDS011;2203;53.686;9.994;2022-09-12T00:16:27;2.83;;;2.10;;
4377;SDS011;2203;53.686;9.994;2022-09-12T00:18:53;2.27;;;2.07;;
4377;SDS011;2203;53.686;9.994;2022-09-12T00:21:19;2.40;;;2.20;;
4377;SDS011;2203;53.686;9.994;2022-09-12T00:23:45;3.77;;;2.00;;
4377;SDS011;2203;53.686;9.994;2022-09-12T00:26:11;2.03;;;1.90;;
4377;SDS011;2203;53.686;9.994;2022-09-12T00:28:37;1.90;;;1.80;;
4377;SDS011;2203;53.686;9.994;2022-09-12T00:31:04;1.60;;;1.50;;
4377;SDS011;2203;53.686;9.994;2022-09-12T00:33:31;2.13;;;2.00;;
4377;SDS011;2203;53.686;9.994;2022-09-12T00:35:57;3.07;;;2.23;;
4377;SDS011;2203;53.686;9.994;2022-09-12T00:38:22;4.43;;;1.40;;
4377;SDS011;2203;53.686;9.994;2022-09-12T00:40:48;2.17;;;1.97;;
4377;SDS011;2203;53.686;9.994;2022-09-12T00:43:14;1.77;;;1.63;;
4377;SDS011;2203;53.686;9.994;2022-09-12T00:45:57;4.40;;;1.70;;
4377;SDS011;2203;53.686;9.994;2022-09-12T00:48:25;3.37;;;1.93;;
4377;SDS011;2203;53.686;9.994;2022-09-12T00:50:57;2.57;;;1.90;;
4377;SDS011;2203;53.686;9.994;2022-09-12T00:53:23;2.10;;;1.60;;
4377;SDS011;2203;53.686;9.994;2022-09-12T00:55:49;3.90;;;1.70;;
4377;SDS011;2203;53.686;9.994;2022-09-12T00:58:18;2.27;;;1.97;;
4377;SDS011;2203;53.686;9.994;2022-09-12T01:00:46;8.20;;;1.97;;
4377;SDS011;2203;53.686;9.994;2022-09-12T01:03:13;3.27;;;1.93;;
4377;SDS011;2203;53.686;9.994;2022-09-12T01:05:42;3.13;;;1.60;;
4377;SDS011;2203;53.686;9.994;2022-09-12T01:08:10;3.77;;;1.77;;
4377;SDS011;2203;53.686;9.994;2022-09-12T01:10:36;1.87;;;1.47;;
4377;SDS011;2203;53.686;9.994;2022-09-12T01:13:04;1.93;;;1.80;;
4377;SDS011;2203;53.686;9.994;2022-09-12T01:15:30;5.63;;;1.73;;
4377;SDS011;2203;53.686;9.994;2022-09-12T01:18:19;2.03;;;1.83;;
4377;SDS011;2203;53.686;9.994;2022-09-12T01:20:49;4.60;;;2.13;;
4377;SDS011;2203;53.686;9.994;2022-09-12T01:38:09;2.17;;;1.30;;
4377;SDS011;2203;53.686;9.994;2022-09-12T01:46:23;2.40;;;1.40;;
4377;SDS011;2203;53.686;9.994;2022-09-12T01:49:01;2.10;;;1.90;;
4377;SDS011;2203;53.686;9.994;2022-09-12T01:51:52;1.80;;;1.53;;
4377;SDS011;2203;53.686;9.994;2022-09-12T01:54:49;2.17;;;1.97;;
4377;SDS011;2203;53.686;9.994;2022-09-12T01:57:40;3.00;;;1.90;;
4377;SDS011;2203;53.686;9.994;2022-09-12T02:00:11;3.57;;;1.80;;
4377;SDS011;2203;53.686;9.994;2022-09-12T02:02:38;1.90;;;1.80;;
4377;SDS011;2203;53.686;9.994;2022-09-12T02:05:12;5.30;;;2.30;;
4377;SDS011;2203;53.686;9.994;2022-09-12T02:10:22;1.70;;;1.60;;
4377;SDS011;2203;53.686;9.994;2022-09-12T02:12:59;2.57;;;2.23;;
4377;SDS011;2203;53.686;9.994;2022-09-12T02:15:31;2.33;;;1.90;;
4377;SDS011;2203;53.686;9.994;2022-09-12T02:17:59;2.23;;;2.03;;
4377;SDS011;2203;53.686;9.994;2022-09-12T02:20:30;3.07;;;2.17;;
4377;SDS011;2203;53.686;9.994;2022-09-12T02:22:58;3.00;;;1.90;;
4377;SDS011;2203;53.686;9.994;2022-09-12T02:25:24;3.50;;;3.00;;
4377;SDS011;2203;53.686;9.994;2022-09-12T02:28:34;3.47;;;2.00;;
4377;SDS011;2203;53.686;9.994;2022-09-12T02:33:43;2.20;;;1.80;;
4377;SDS011;2203;53.686;9.994;2022-09-12T02:39:02;6.10;;;1.80;;
4377;SDS011;2203;53.686;9.994;2022-09-12T02:41:27;1.87;;;1.77;;
4377;SDS011;2203;53.686;9.994;2022-09-12T02:43:53;3.33;;;1.60;;
4377;SDS011;2203;53.686;9.994;2022-09-12T02:46:31;1.80;;;1.70;;
4377;SDS011;2203;53.686;9.994;2022-09-12T02:49:00;2.20;;;1.80;;
4377;SDS011;2203;53.686;9.994;2022-09-12T02:51:26;4.60;;;2.30;;
4377;SDS011;2203;53.686;9.994;2022-09-12T02:53:52;3.93;;;2.20;;
4377;SDS011;2203;53.686;9.994;2022-09-12T02:56:19;3.30;;;2.00;;
4377;SDS011;2203;53.686;9.994;2022-09-12T02:58:48;3.07;;;2.33;;
4377;SDS011;2203;53.686;9.994;2022-09-12T03:01:35;2.57;;;2.20;;
4377;SDS011;2203;53.686;9.994;2022-09-12T03:09:30;4.83;;;2.57;;
4377;SDS011;2203;53.686;9.994;2022-09-12T03:15:32;3.40;;;2.50;;
4377;SDS011;2203;53.686;9.994;2022-09-12T03:23:38;4.87;;;3.33;;
4377;SDS011;2203;53.686;9.994;2022-09-12T03:28:47;8.40;;;3.30;;
4377;SDS011;2203;53.686;9.994;2022-09-12T03:31:13;3.23;;;2.93;;
4377;SDS011;2203;53.686;9.994;2022-09-12T03:33:40;4.60;;;3.40;;
4377;SDS011;2203;53.686;9.994;2022-09-12T03:36:09;10.47;;;3.13;;
4377;SDS011;2203;53.686;9.994;2022-09-12T03:38:39;5.13;;;2.80;;
4377;SDS011;2203;53.686;9.994;2022-09-12T03:41:04;12.23;;;3.40;;
4377;SDS011;2203;53.686;9.994;2022-09-12T03:43:30;4.50;;;3.53;;
4377;SDS011;2203;53.686;9.994;2022-09-12T03:45:55;5.90;;;3.07;;
4377;SDS011;2203;53.686;9.994;2022-09-12T03:48:20;4.83;;;2.90;;
4377;SDS011;2203;53.686;9.994;2022-09-12T03:50:46;5.37;;;2.70;;
4377;SDS011;2203;53.686;9.994;2022-09-12T03:53:11;7.40;;;2.77;;
4377;SDS011;2203;53.686;9.994;2022-09-12T03:55:40;5.67;;;3.17;;
4377;SDS011;2203;53.686;9.994;2022-09-12T03:58:05;6.67;;;3.47;;
4377;SDS011;2203;53.686;9.994;2022-09-12T04:00:31;5.17;;;3.50;;
4377;SDS011;2203;53.686;9.994;2022-09-12T04:02:57;3.37;;;2.73;;
4377;SDS011;2203;53.686;9.994;2022-09-12T04:05:23;3.70;;;2.87;;
4377;SDS011;2203;53.686;9.994;2022-09-12T04:07:49;6.37;;;3.03;;
4377;SDS011;2203;53.686;9.994;2022-09-12T04:10:15;5.70;;;2.80;;
4377;SDS011;2203;53.686;9.994;2022-09-12T04:12:40;5.83;;;2.90;;
4377;SDS011;2203;53.686;9.994;2022-09-12T04:15:06;9.83;;;2.73;;
4377;SDS011;2203;53.686;9.994;2022-09-12T04:17:35;6.40;;;3.00;;
4377;SDS011;2203;53.686;9.994;2022-09-12T04:20:01;2.60;;;2.40;;
4377;SDS011;2203;53.686;9.994;2022-09-12T04:22:26;3.90;;;2.87;;
4377;SDS011;2203;53.686;9.994;2022-09-12T04:24:52;4.97;;;2.90;;
4377;SDS011;2203;53.686;9.994;2022-09-12T04:27:17;3.23;;;2.87;;
4377;SDS011;2203;53.686;9.994;2022-09-12T04:29:42;3.23;;;2.63;;
4377;SDS011;2203;53.686;9.994;2022-09-12T04:32:08;3.03;;;2.73;;
4377;SDS011;2203;53.686;9.994;2022-09-12T04:34:33;3.70;;;3.00;;
4377;SDS011;2203;53.686;9.994;2022-09-12T04:36:59;5.17;;;3.20;;
4377;SDS011;2203;53.686;9.994;2022-09-12T04:39:24;4.70;;;3.40;;
4377;SDS011;2203;53.686;9.994;2022-09-12T04:41:50;5.40;;;2.47;;
4377;SDS011;2203;53.686;9.994;2022-09-12T04:44:16;5.10;;;2.50;;
4377;SDS011;2203;53.686;9.994;2022-09-12T04:46:42;2.60;;;2.37;;
4377;SDS011;2203;53.686;9.994;2022-09-12T04:49:10;3.63;;;2.40;;
4377;SDS011;2203;53.686;9.994;2022-09-12T04:51:36;3.97;;;2.53;;
4377;SDS011;2203;53.686;9.994;2022-09-12T04:54:04;7.07;;;2.63;;
4377;SDS011;2203;53.686;9.994;2022-09-12T04:56:31;3.80;;;2.97;;
4377;SDS011;2203;53.686;9.994;2022-09-12T04:58:58;4.23;;;2.73;;
4377;SDS011;2203;53.686;9.994;2022-09-12T05:01:25;6.90;;;4.03;;
4377;SDS011;2203;53.686;9.994;2022-09-12T05:03:52;6.30;;;2.80;;
4377;SDS011;2203;53.686;9.994;2022-09-12T05:06:22;7.83;;;3.50;;
4377;SDS011;2203;53.686;9.994;2022-09-12T05:08:49;9.30;;;2.63;;
4377;SDS011;2203;53.686;9.994;2022-09-12T05:11:16;4.40;;;3.40;;
4377;SDS011;2203;53.686;9.994;2022-09-12T05:13:44;4.40;;;3.47;;
4377;SDS011;2203;53.686;9.994;2022-09-12T05:16:10;5.90;;;3.70;;
4377;SDS011;2203;53.686;9.994;2022-09-12T05:18:37;6.20;;;3.53;;
4377;SDS011;2203;53.686;9.994;2022-09-12T05:21:04;5.27;;;3.17;;
4377;SDS011;2203;53.686;9.994;2022-09-12T05:23:30;6.03;;;3.30;;
4377;SDS011;2203;53.686;9.994;2022-09-12T05:25:56;5.43;;;3.50;;
4377;SDS011;2203;53.686;9.994;2022-09-12T05:28:23;3.70;;;3.30;;
4377;SDS011;2203;53.686;9.994;2022-09-12T05:31:06;3.13;;;2.83;;
4377;SDS011;2203;53.686;9.994;2022-09-12T05:33:33;4.60;;;3.33;;
4377;SDS011;2203;53.686;9.994;2022-09-12T05:36:00;4.17;;;3.20;;
4377;SDS011;2203;53.686;9.994;2022-09-12T05:38:26;5.13;;;3.30;;
4377;SDS011;2203;53.686;9.994;2022-09-12T05:41:13;5.47;;;3.97;;
4377;SDS011;2203;53.686;9.994;2022-09-12T05:43:43;4.40;;;3.43;;
4377;SDS011;2203;53.686;9.994;2022-09-12T05:46:11;5.07;;;3.20;;
4377;SDS011;2203;53.686;9.994;2022-09-12T05:48:41;4.70;;;3.60;;
4377;SDS011;2203;53.686;9.994;2022-09-12T05:51:09;8.80;;;4.90;;
4377;SDS011;2203;53.686;9.994;2022-09-12T05:53:36;4.70;;;3.60;;
4377;SDS011;2203;53.686;9.994;2022-09-12T05:58:29;7.70;;;4.10;;
4377;SDS011;2203;53.686;9.994;2022-09-12T06:00:54;6.40;;;4.03;;
4377;SDS011;2203;53.686;9.994;2022-09-12T06:03:21;5.27;;;4.30;;
4377;SDS011;2203;53.686;9.994;2022-09-12T06:05:46;5.63;;;4.77;;
4377;SDS011;2203;53.686;9.994;2022-09-12T06:08:12;15.30;;;4.40;;
4377;SDS011;2203;53.686;9.994;2022-09-12T06:10:37;5.70;;;4.60;;
4377;SDS011;2203;53.686;9.994;2022-09-12T06:13:03;11.13;;;5.40;;
4377;SDS011;2203;53.686;9.994;2022-09-12T06:15:28;6.40;;;5.00;;
4377;SDS011;2203;53.686;9.994;2022-09-12T06:17:53;10.90;;;6.70;;
4377;SDS011;2203;53.686;9.994;2022-09-12T06:20:19;8.60;;;6.30;;
4377;SDS011;2203;53.686;9.994;2022-09-12T06:22:44;8.60;;;6.20;;
4377;SDS011;2203;53.686;9.994;2022-09-12T06:25:10;7.30;;;5.40;;
4377;SDS011;2203;53.686;9.994;2022-09-12T06:27:35;8.73;;;6.20;;
4377;SDS011;2203;53.686;9.994;2022-09-12T06:30:00;10.20;;;7.17;;
4377;SDS011;2203;53.686;9.994;2022-09-12T06:32:28;8.80;;;6.60;;
4377;SDS011;2203;53.686;9.994;2022-09-12T06:34:54;9.87;;;7.10;;
4377;SDS011;2203;53.686;9.994;2022-09-12T06:37:20;10.07;;;6.90;;
4377;SDS011;2203;53.686;9.994;2022-09-12T06:39:45;14.10;;;7.47;;
4377;SDS011;2203;53.686;9.994;2022-09-12T06:42:12;16.60;;;8.30;;
4377;SDS011;2203;53.686;9.994;2022-09-12T06:44:38;11.20;;;8.60;;
4377;SDS011;2203;53.686;9.994;2022-09-12T06:47:04;14.33;;;9.10;;
4377;SDS011;2203;53.686;9.994;2022-09-12T06:49:29;13.63;;;10.13;;
4377;SDS011;2203;53.686;9.994;2022-09-12T06:51:55;20.37;;;10.10;;
4377;SDS011;2203;53.686;9.994;2022-09-12T06:54:21;16.27;;;9.53;;
4377;SDS011;2203;53.686;9.994;2022-09-12T06:56:47;14.90;;;9.57;;
4377;SDS011;2203;53.686;9.994;2022-09-12T06:59:13;15.20;;;9.67;;
4377;SDS011;2203;53.686;9.994;2022-09-12T07:01:40;12.90;;;9.90;;
4377;SDS011;2203;53.686;9.994;2022-09-12T07:04:05;15.30;;;9.87;;
4377;SDS011;2203;53.686;9.994;2022-09-12T07:06:38;13.73;;;8.87;;
4377;SDS011;2203;53.686;9.994;2022-09-12T07:09:06;10.53;;;7.97;;
4377;SDS011;2203;53.686;9.994;2022-09-12T07:11:33;10.33;;;7.27;;
4377;SDS011;2203;53.686;9.994;2022-09-12T07:14:01;11.30;;;7.80;;
4377;SDS011;2203;53.686;9.994;2022-09-12T07:16:27;11.97;;;8.50;;
4377;SDS011;2203;53.686;9.994;2022-09-12T07:18:54;18.20;;;8.70;;
4377;SDS011;2203;53.686;9.994;2022-09-12T07:21:23;15.63;;;8.40;;
4377;SDS011;2203;53.686;9.994;2022-09-12T07:23:49;13.63;;;7.27;;
4377;SDS011;2203;53.686;9.994;2022-09-12T07:26:19;13.13;;;7.50;;
4377;SDS011;2203;53.686;9.994;2022-09-12T07:28:49;15.37;;;6.63;;
4377;SDS011;2203;53.686;9.994;2022-09-12T07:31:16;14.23;;;7.70;;
4377;SDS011;2203;53.686;9.994;2022-09-12T07:33:42;9.97;;;7.50;;
4377;SDS011;2203;53.686;9.994;2022-09-12T07:36:12;11.63;;;7.00;;
4377;SDS011;2203;53.686;9.994;2022-09-12T07:38:39;13.53;;;6.87;;
4377;SDS011;2203;53.686;9.994;2022-09-12T07:41:18;21.07;;;7.00;;
4377;SDS011;2203;53.686;9.994;2022-09-12T07:43:45;11.40;;;6.10;;
4377;SDS011;2203;53.686;9.994;2022-09-12T07:46:10;12.13;;;7.00;;
4377;SDS011;2203;53.686;9.994;2022-09-12T07:48:36;9.10;;;6.43;;
4377;SDS011;2203;53.686;9.994;2022-09-12T07:51:03;10.67;;;6.50;;
4377;SDS011;2203;53.686;9.994;2022-09-12T07:53:30;8.33;;;5.67;;
4377;SDS011;2203;53.686;9.994;2022-09-12T07:55:58;17.00;;;8.97;;
4377;SDS011;2203;53.686;9.994;2022-09-12T07:58:24;14.17;;;8.53;;
4377;SDS011;2203;53.686;9.994;2022-09-12T08:00:49;8.47;;;6.27;;
4377;SDS011;2203;53.686;9.994;2022-09-12T08:03:15;9.23;;;6.13;;
4377;SDS011;2203;53.686;9.994;2022-09-12T08:05:40;13.63;;;6.70;;
4377;SDS011;2203;53.686;9.994;2022-09-12T08:08:06;11.10;;;6.50;;
4377;SDS011;2203;53.686;9.994;2022-09-12T08:10:31;10.07;;;6.13;;
4377;SDS011;2203;53.686;9.994;2022-09-12T08:12:56;13.03;;;5.50;;
4377;SDS011;2203;53.686;9.994;2022-09-12T08:15:22;9.10;;;5.40;;
4377;SDS011;2203;53.686;9.994;2022-09-12T08:17:47;15.70;;;5.87;;
4377;SDS011;2203;53.686;9.994;2022-09-12T08:20:13;11.60;;;5.27;;
4377;SDS011;2203;53.686;9.994;2022-09-12T08:22:38;8.30;;;5.10;;
4377;SDS011;2203;53.686;9.994;2022-09-12T08:25:04;8.87;;;5.50;;
4377;SDS011;2203;53.686;9.994;2022-09-12T08:27:30;6.60;;;5.40;;
4377;SDS011;2203;53.686;9.994;2022-09-12T08:29:56;7.50;;;5.13;;
4377;SDS011;2203;53.686;9.994;2022-09-12T08:32:21;8.50;;;5.03;;
4377;SDS011;2203;53.686;9.994;2022-09-12T08:34:47;11.97;;;5.07;;
4377;SDS011;2203;53.686;9.994;2022-09-12T08:37:12;14.73;;;6.30;;
4377;SDS011;2203;53.686;9.994;2022-09-12T08:39:38;13.97;;;5.77;;
4377;SDS011;2203;53.686;9.994;2022-09-12T08:42:04;10.60;;;5.40;;
4377;SDS011;2203;53.686;9.994;2022-09-12T08:44:33;8.47;;;5.07;;
4377;SDS011;2203;53.686;9.994;2022-09-12T08:49:50;9.30;;;4.30;;
4377;SDS011;2203;53.686;9.994;2022-09-12T08:54:47;5.30;;;4.07;;
4377;SDS011;2203;53.686;9.994;2022-09-12T08:57:14;11.20;;;3.57;;
4377;SDS011;2203;53.686;9.994;2022-09-12T08:59:41;6.60;;;4.33;;
4377;SDS011;2203;53.686;9.994;2022-09-12T09:04:50;5.60;;;3.23;;
4377;SDS011;2203;53.686;9.994;2022-09-12T09:12:30;2.83;;;2.27;;
4377;SDS011;2203;53.686;9.994;2022-09-12T09:17:43;2.60;;;2.40;;
4377;SDS011;2203;53.686;9.994;2022-09-12T09:20:25;4.93;;;3.23;;
4377;SDS011;2203;53.686;9.994;2022-09-12T09:25:24;12.00;;;2.70;;
4377;SDS011;2203;53.686;9.994;2022-09-12T09:28:21;5.13;;;2.20;;
4377;SDS011;2203;53.686;9.994;2022-09-12T09:30:49;5.07;;;2.87;;
4377;SDS011;2203;53.686;9.994;2022-09-12T09:33:25;7.33;;;2.57;;
4377;SDS011;2203;53.686;9.994;2022-09-12T09:44:06;2.40;;;1.93;;
4377;SDS011;2203;53.686;9.994;2022-09-12T09:46:31;3.23;;;1.83;;
4377;SDS011;2203;53.686;9.994;2022-09-12T09:48:57;3.73;;;1.80;;
4377;SDS011;2203;53.686;9.994;2022-09-12T09:51:25;2.40;;;1.60;;
4377;SDS011;2203;53.686;9.994;2022-09-12T09:53:57;2.57;;;1.77;;
4377;SDS011;2203;53.686;9.994;2022-09-12T09:56:34;4.33;;;2.37;;
4377;SDS011;2203;53.686;9.994;2022-09-12T10:01:52;3.57;;;2.17;;
4377;SDS011;2203;53.686;9.994;2022-09-12T10:04:20;2.10;;;1.80;;
4377;SDS011;2203;53.686;9.994;2022-09-12T10:06:50;3.03;;;1.90;;
4377;SDS011;2203;53.686;9.994;2022-09-12T10:09:17;1.63;;;1.53;;
4377;SDS011;2203;53.686;9.994;2022-09-12T10:11:43;2.33;;;1.77;;
4377;SDS011;2203;53.686;9.994;2022-09-12T10:14:42;14.73;;;1.80;;
4377;SDS011;2203;53.686;9.994;2022-09-12T10:18:05;6.37;;;2.90;;
4377;SDS011;2203;53.686;9.994;2022-09-12T10:20:52;3.83;;;1.73;;
4377;SDS011;2203;53.686;9.994;2022-09-12T10:23:06;1.47;;;1.23;;
4377;SDS011;2203;53.686;9.994;2022-09-12T10:25:54;3.00;;;1.53;;
4377;SDS011;2203;53.686;9.994;2022-09-12T10:28:23;2.07;;;1.50;;
4377;SDS011;2203;53.686;9.994;2022-09-12T10:30:52;2.27;;;2.07;;
4377;SDS011;2203;53.686;9.994;2022-09-12T10:33:18;1.30;;;1.20;;
4377;SDS011;2203;53.686;9.994;2022-09-12T10:35:44;3.37;;;1.93;;
4377;SDS011;2203;53.686;9.994;2022-09-12T10:38:25;2.47;;;2.00;;
4377;SDS011;2203;53.686;9.994;2022-09-12T10:41:25;5.10;;;1.90;;
4377;SDS011;2203;53.686;9.994;2022-09-12T10:43:43;2.50;;;1.70;;
4377;SDS011;2203;53.686;9.994;2022-09-12T10:48:44;6.13;;;1.90;;
4377;SDS011;2203;53.686;9.994;2022-09-12T10:53:48;5.73;;;2.53;;
4377;SDS011;2203;53.686;9.994;2022-09-12T10:56:19;6.23;;;2.70;;
4377;SDS011;2203;53.686;9.994;2022-09-12T11:01:23;3.27;;;2.83;;
4377;SDS011;2203;53.686;9.994;2022-09-12T11:06:33;2.50;;;1.90;;
4377;SDS011;2203;53.686;9.994;2022-09-12T11:17:33;5.30;;;2.30;;
4377;SDS011;2203;53.686;9.994;2022-09-12T11:20:13;3.80;;;2.70;;
4377;SDS011;2203;53.686;9.994;2022-09-12T11:25:33;4.87;;;2.47;;
4377;SDS011;2203;53.686;9.994;2022-09-12T11:28:20;10.03;;;2.50;;
4377;SDS011;2203;53.686;9.994;2022-09-12T11:33:49;4.37;;;2.70;;
4377;SDS011;2203;53.686;9.994;2022-09-12T11:41:42;3.70;;;2.83;;
4377;SDS011;2203;53.686;9.994;2022-09-12T11:44:14;3.10;;;2.50;;
4377;SDS011;2203;53.686;9.994;2022-09-12T11:46:43;4.43;;;2.80;;
4377;SDS011;2203;53.686;9.994;2022-09-12T11:51:43;5.33;;;2.17;;
4377;SDS011;2203;53.686;9.994;2022-09-12T11:54:11;2.60;;;2.00;;
4377;SDS011;2203;53.686;9.994;2022-09-12T11:56:48;3.27;;;2.17;;
4377;SDS011;2203;53.686;9.994;2022-09-12T11:59:23;6.50;;;2.63;;
4377;SDS011;2203;53.686;9.994;2022-09-12T12:01:54;3.70;;;2.40;;
4377;SDS011;2203;53.686;9.994;2022-09-12T12:04:24;10.47;;;2.47;;
4377;SDS011;2203;53.686;9.994;2022-09-12T12:07:05;2.50;;;2.00;;
4377;SDS011;2203;53.686;9.994;2022-09-12T12:09:33;2.87;;;2.60;;
4377;SDS011;2203;53.686;9.994;2022-09-12T12:12:00;7.07;;;2.13;;
4377;SDS011;2203;53.686;9.994;2022-09-12T12:14:32;1.90;;;1.70;;
4377;SDS011;2203;53.686;9.994;2022-09-12T12:17:02;4.50;;;1.97;;
4377;SDS011;2203;53.686;9.994;2022-09-12T12:19:34;4.17;;;2.03;;
4377;SDS011;2203;53.686;9.994;2022-09-12T12:22:07;4.67;;;1.73;;
4377;SDS011;2203;53.686;9.994;2022-09-12T12:38:34;3.20;;;1.70;;
4377;SDS011;2203;53.686;9.994;2022-09-12T12:43:41;1.90;;;1.33;;
4377;SDS011;2203;53.686;9.994;2022-09-12T12:46:10;4.00;;;1.90;;
4377;SDS011;2203;53.686;9.994;2022-09-12T12:54:28;5.13;;;2.10;;
4377;SDS011;2203;53.686;9.994;2022-09-12T12:57:56;4.67;;;2.20;;
4377;SDS011;2203;53.686;9.994;2022-09-12T13:02:27;4.13;;;2.03;;
4377;SDS011;2203;53.686;9.994;2022-09-12T13:04:55;2.07;;;1.83;;
4377;SDS011;2203;53.686;9.994;2022-09-12T13:07:28;3.27;;;2.17;;
4377;SDS011;2203;53.686;9.994;2022-09-12T13:09:56;7.00;;;2.00;;
4377;SDS011;2203;53.686;9.994;2022-09-12T13:12:28;5.40;;;1.87;;
4377;SDS011;2203;53.686;9.994;2022-09-12T13:15:00;2.77;;;2.20;;
4377;SDS011;2203;53.686;9.994;2022-09-12T13:17:31;4.23;;;2.60;;
4377;SDS011;2203;53.686;9.994;2022-09-12T13:22:41;3.90;;;1.97;;
4377;SDS011;2203;53.686;9.994;2022-09-12T13:28:04;2.93;;;2.30;;
4377;SDS011;2203;53.686;9.994;2022-09-12T13:30:39;6.03;;;2.10;;
4377;SDS011;2203;53.686;9.994;2022-09-12T13:44:03;4.00;;;2.40;;
4377;SDS011;2203;53.686;9.994;2022-09-12T13:46:35;2.37;;;1.80;;
4377;SDS011;2203;53.686;9.994;2022-09-12T13:49:06;3.03;;;1.93;;
4377;SDS011;2203;53.686;9.994;2022-09-12T13:51:37;1.70;;;1.60;;
4377;SDS011;2203;53.686;9.994;2022-09-12T13:54:03;9.13;;;2.10;;
4377;SDS011;2203;53.686;9.994;2022-09-12T13:56:29;2.00;;;1.90;;
4377;SDS011;2203;53.686;9.994;2022-09-12T13:58:58;2.13;;;1.90;;
4377;SDS011;2203;53.686;9.994;2022-09-12T14:01:43;5.80;;;2.23;;
4377;SDS011;2203;53.686;9.994;2022-09-12T14:07:27;6.70;;;2.27;;
4377;SDS011;2203;53.686;9.994;2022-09-12T14:09:53;4.20;;;2.00;;
4377;SDS011;2203;53.686;9.994;2022-09-12T14:12:30;1.90;;;1.80;;
4377;SDS011;2203;53.686;9.994;2022-09-12T14:14:59;5.07;;;2.20;;
4377;SDS011;2203;53.686;9.994;2022-09-12T14:17:31;2.57;;;2.17;;
4377;SDS011;2203;53.686;9.994;2022-09-12T14:19:59;4.60;;;2.20;;
4377;SDS011;2203;53.686;9.994;2022-09-12T14:22:27;2.43;;;1.83;;
4377;SDS011;2203;53.686;9.994;2022-09-12T14:24:54;2.10;;;1.43;;
4377;SDS011;2203;53.686;9.994;2022-09-12T14:27:24;1.70;;;1.60;;
4377;SDS011;2203;53.686;9.994;2022-09-12T14:29:59;3.63;;;2.30;;
4377;SDS011;2203;53.686;9.994;2022-09-12T14:32:26;4.27;;;3.10;;
4377;SDS011;2203;53.686;9.994;2022-09-12T14:35:04;2.27;;;1.93;;
4377;SDS011;2203;53.686;9.994;2022-09-12T14:37:30;3.60;;;1.70;;
4377;SDS011;2203;53.686;9.994;2022-09-12T14:39:56;4.43;;;1.87;;
4377;SDS011;2203;53.686;9.994;2022-09-12T14:42:28;4.00;;;1.90;;
4377;SDS011;2203;53.686;9.994;2022-09-12T14:44:55;2.47;;;1.80;;
4377;SDS011;2203;53.686;9.994;2022-09-12T14:47:26;3.00;;;2.10;;
4377;SDS011;2203;53.686;9.994;2022-09-12T14:49:53;3.63;;;1.83;;
4377;SDS011;2203;53.686;9.994;2022-09-12T14:52:26;5.70;;;2.00;;
4377;SDS011;2203;53.686;9.994;2022-09-12T14:55:00;6.70;;;1.87;;
4377;SDS011;2203;53.686;9.994;2022-09-12T15:02:41;3.30;;;2.20;;
4377;SDS011;2203;53.686;9.994;2022-09-12T15:07:34;11.83;;;2.33;;
4377;SDS011;2203;53.686;9.994;2022-09-12T15:10:02;5.30;;;1.87;;
4377;SDS011;2203;53.686;9.994;2022-09-12T15:12:29;5.10;;;2.53;;
4377;SDS011;2203;53.686;9.994;2022-09-12T15:15:15;12.00;;;2.10;;
4377;SDS011;2203;53.686;9.994;2022-09-12T15:17:42;5.60;;;2.40;;
4377;SDS011;2203;53.686;9.994;2022-09-12T15:20:07;6.00;;;2.83;;
4377;SDS011;2203;53.686;9.994;2022-09-12T15:22:34;5.43;;;2.43;;
4377;SDS011;2203;53.686;9.994;2022-09-12T15:25:00;4.97;;;2.40;;
4377;SDS011;2203;53.686;9.994;2022-09-12T15:27:26;5.50;;;3.10;;
4377;SDS011;2203;53.686;9.994;2022-09-12T15:29:52;2.93;;;2.53;;
4377;SDS011;2203;53.686;9.994;2022-09-12T15:32:24;3.53;;;2.83;;
4377;SDS011;2203;53.686;9.994;2022-09-12T15:34:51;3.10;;;2.60;;
4377;SDS011;2203;53.686;9.994;2022-09-12T15:37:18;5.33;;;2.10;;
4377;SDS011;2203;53.686;9.994;2022-09-12T15:39:44;7.63;;;2.17;;
4377;SDS011;2203;53.686;9.994;2022-09-12T15:42:10;6.60;;;2.80;;
4377;SDS011;2203;53.686;9.994;2022-09-12T15:44:37;2.90;;;2.57;;
4377;SDS011;2203;53.686;9.994;2022-09-12T15:47:02;3.80;;;2.40;;
4377;SDS011;2203;53.686;9.994;2022-09-12T15:49:27;7.60;;;2.53;;
4377;SDS011;2203;53.686;9.994;2022-09-12T15:51:53;5.63;;;2.53;;
4377;SDS011;2203;53.686;9.994;2022-09-12T15:54:19;5.87;;;2.40;;
4377;SDS011;2203;53.686;9.994;2022-09-12T15:56:45;4.23;;;2.50;;
4377;SDS011;2203;53.686;9.994;2022-09-12T15:59:10;5.37;;;2.63;;
4377;SDS011;2203;53.686;9.994;2022-09-12T16:01:36;2.87;;;2.57;;
4377;SDS011;2203;53.686;9.994;2022-09-12T16:04:02;4.93;;;2.50;;
4377;SDS011;2203;53.686;9.994;2022-09-12T16:06:27;7.63;;;5.80;;
4377;SDS011;2203;53.686;9.994;2022-09-12T16:08:55;3.90;;;3.13;;
4377;SDS011;2203;53.686;9.994;2022-09-12T16:11:21;10.07;;;3.37;;
4377;SDS011;2203;53.686;9.994;2022-09-12T16:13:48;3.10;;;2.80;;
4377;SDS011;2203;53.686;9.994;2022-09-12T16:16:13;3.60;;;2.47;;
4377;SDS011;2203;53.686;9.994;2022-09-12T16:18:39;7.37;;;2.97;;
4377;SDS011;2203;53.686;9.994;2022-09-12T16:21:05;2.70;;;2.50;;
4377;SDS011;2203;53.686;9.994;2022-09-12T16:23:30;7.40;;;2.80;;
4377;SDS011;2203;53.686;9.994;2022-09-12T16:25:56;4.17;;;3.27;;
4377;SDS011;2203;53.686;9.994;2022-09-12T16:28:29;6.23;;;3.10;;
4377;SDS011;2203;53.686;9.994;2022-09-12T16:30:57;6.10;;;2.97;;
4377;SDS011;2203;53.686;9.994;2022-09-12T16:33:26;9.50;;;3.00;;
4377;SDS011;2203;53.686;9.994;2022-09-12T16:35:52;5.63;;;2.93;;
4377;SDS011;2203;53.686;9.994;2022-09-12T16:38:22;6.23;;;3.00;;
4377;SDS011;2203;53.686;9.994;2022-09-12T16:40:47;7.70;;;2.90;;
4377;SDS011;2203;53.686;9.994;2022-09-12T16:43:13;2.87;;;2.60;;
4377;SDS011;2203;53.686;9.994;2022-09-12T16:45:41;4.80;;;2.80;;
4377;SDS011;2203;53.686;9.994;2022-09-12T16:48:07;3.50;;;2.80;;
4377;SDS011;2203;53.686;9.994;2022-09-12T16:50:33;3.37;;;2.40;;
4377;SDS011;2203;53.686;9.994;2022-09-12T16:52:58;3.60;;;2.60;;
4377;SDS011;2203;53.686;9.994;2022-09-12T16:55:24;6.67;;;4.00;;
4377;SDS011;2203;53.686;9.994;2022-09-12T16:57:54;10.87;;;2.80;;
4377;SDS011;2203;53.686;9.994;2022-09-12T17:00:20;6.53;;;2.60;;
4377;SDS011;2203;53.686;9.994;2022-09-12T17:02:46;5.63;;;2.87;;
4377;SDS011;2203;53.686;9.994;2022-09-12T17:05:12;5.23;;;2.50;;
4377;SDS011;2203;53.686;9.994;2022-09-12T17:07:39;3.23;;;2.90;;
4377;SDS011;2203;53.686;9.994;2022-09-12T17:10:05;5.07;;;2.70;;
4377;SDS011;2203;53.686;9.994;2022-09-12T17:12:31;8.10;;;2.97;;
4377;SDS011;2203;53.686;9.994;2022-09-12T17:14:56;5.37;;;2.90;;
4377;SDS011;2203;53.686;9.994;2022-09-12T17:17:22;5.00;;;2.73;;
4377;SDS011;2203;53.686;9.994;2022-09-12T17:19:48;8.10;;;3.07;;
4377;SDS011;2203;53.686;9.994;2022-09-12T17:22:13;3.53;;;3.00;;
4377;SDS011;2203;53.686;9.994;2022-09-12T17:24:38;4.67;;;2.70;;
4377;SDS011;2203;53.686;9.994;2022-09-12T17:27:04;3.70;;;3.17;;
4377;SDS011;2203;53.686;9.994;2022-09-12T17:29:30;4.80;;;3.07;;
4377;SDS011;2203;53.686;9.994;2022-09-12T17:31:55;5.10;;;3.33;;
4377;SDS011;2203;53.686;9.994;2022-09-12T17:34:21;5.47;;;3.13;;
4377;SDS011;2203;53.686;9.994;2022-09-12T17:36:47;3.50;;;3.20;;
4377;SDS011;2203;53.686;9.994;2022-09-12T17:39:13;5.53;;;2.80;;
4377;SDS011;2203;53.686;9.994;2022-09-12T17:41:39;8.17;;;3.47;;
4377;SDS011;2203;53.686;9.994;2022-09-12T17:44:07;5.90;;;3.57;;
4377;SDS011;2203;53.686;9.994;2022-09-12T17:46:36;10.03;;;3.60;;
4377;SDS011;2203;53.686;9.994;2022-09-12T17:49:03;8.50;;;3.50;;
4377;SDS011;2203;53.686;9.994;2022-09-12T17:51:30;5.60;;;3.63;;
4377;SDS011;2203;53.686;9.994;2022-09-12T17:53:56;4.90;;;3.27;;
4377;SDS011;2203;53.686;9.994;2022-09-12T17:56:27;4.10;;;3.47;;
4377;SDS011;2203;53.686;9.994;2022-09-12T17:58:55;5.57;;;3.47;;
4377;SDS011;2203;53.686;9.994;2022-09-12T18:01:21;4.00;;;3.60;;
4377;SDS011;2203;53.686;9.994;2022-09-12T18:04:05;3.80;;;3.30;;
4377;SDS011;2203;53.686;9.994;2022-09-12T18:06:31;4.70;;;3.50;;